Terminal Aerodrome Forecast
Issued by NWS

Home | Current Version | Previous Version | Text Only | Print | Product List | Glossary On
Versions: 1 2 3 4 5 6 7 8 9 10 11 12 13 14 15 16
000
FTUS44 KCRP 230527
TAFLRD
TAF
KLRD 230527Z 2306/2406 13014KT P6SM SKC
     FM231000 14012KT P6SM SCT015
      TEMPO 2310/2314 BKN015
     FM231400 15015G23KT P6SM BKN025
     FM231700 15022G30KT P6SM SCT040 SCT250
     FM240100 14020G27KT P6SM BKN250=

USA.gov is the U.S. government's official web portal to all federal, state and local government web resources and services.